Time;durP1;ratioP1;P1;durP2;ratioP2;P2;SDS_P1;SDS_P2;PMS_P1;PMS_P2;Temp;Humidity;BMP_temperature;BMP_pressure;BME280_temperature;BME280_humidity;BME280_pressure;Samples;Min_cycle;Max_cycle;Signal;HPM_P1;HPM_P2
2021/08/04 00:00:42;;;;;;;9.02;4.35;;;;;;;14.58;67.67;99668.41;5101402;28;20105;-76
2021/08/04 00:03:08;;;;;;;9.50;4.85;;;;;;;14.61;67.86;99679.63;5106128;28;20122;-77
2021/08/04 00:05:33;;;;;;;9.85;4.70;;;;;;;14.58;68.02;99678.88;5075667;28;20039;-75
2021/08/04 00:07:59;;;;;;;9.50;4.90;;;;;;;14.59;68.19;99675.34;5094093;28;20055;-75
2021/08/04 00:10:25;;;;;;;14.13;4.50;;;;;;;14.52;68.70;99679.03;5094664;28;20176;-75
2021/08/04 00:12:51;;;;;;;8.00;4.05;;;;;;;14.56;68.47;99685.91;5111689;28;20051;-75
2021/08/04 00:15:18;;;;;;;10.18;3.97;;;;;;;14.52;68.43;99679.91;5082099;28;20032;-75
2021/08/04 00:17:45;;;;;;;7.82;4.25;;;;;;;14.48;68.77;99687.84;5091048;28;20131;-75
2021/08/04 00:20:11;;;;;;;7.97;4.25;;;;;;;14.45;68.70;99691.44;5073487;28;20032;-76
2021/08/04 00:22:37;;;;;;;10.40;4.47;;;;;;;14.29;69.00;99670.91;5055176;28;20249;-74
2021/08/04 00:25:04;;;;;;;8.38;4.30;;;;;;;14.41;69.16;99692.41;5089511;28;20035;-75
2021/08/04 00:27:30;;;;;;;7.40;4.22;;;;;;;14.39;69.29;99688.97;5094017;28;20035;-76
2021/08/04 00:30:11;;;;;;;13.75;4.55;;;;;;;14.36;69.28;99689.91;5093475;28;20087;-75
2021/08/04 00:32:36;;;;;;;8.82;4.43;;;;;;;14.38;69.45;99689.88;5109492;28;20070;-75
2021/08/04 00:35:03;;;;;;;12.68;4.72;;;;;;;14.37;69.49;99686.41;5108952;28;20496;-76
2021/08/04 00:37:29;;;;;;;8.52;4.55;;;;;;;14.44;69.71;99694.94;5093111;28;20532;-77
2021/08/04 00:39:55;;;;;;;10.90;4.70;;;;;;;14.40;69.59;99690.69;5059893;28;20067;-75
2021/08/04 00:42:22;;;;;;;13.32;5.25;;;;;;;14.34;69.71;99683.84;5056183;28;20063;-74
2021/08/04 00:44:48;;;;;;;9.07;4.90;;;;;;;14.39;69.83;99689.84;5089911;28;20543;-75
2021/08/04 00:47:17;;;;;;;14.63;4.72;;;;;;;14.38;69.61;99690.75;5056249;28;20083;-76
2021/08/04 00:49:47;;;;;;;11.75;4.63;;;;;;;14.31;69.84;99682.19;5056275;28;20040;-76
2021/08/04 00:52:14;;;;;;;15.73;4.75;;;;;;;14.38;69.76;99697.72;5089854;28;20039;-74
2021/08/04 00:54:40;;;;;;;10.40;4.63;;;;;;;14.35;69.84;99698.66;5071126;28;20052;-76
2021/08/04 00:57:06;;;;;;;14.75;4.60;;;;;;;14.31;70.15;99695.28;5070717;28;20032;-75
2021/08/04 00:59:32;;;;;;;13.43;4.65;;;;;;;14.28;69.93;99697.09;5070977;28;20138;-75
2021/08/04 01:02:15;;;;;;;11.63;4.72;;;;;;;14.24;70.08;99703.31;5070976;28;20073;-77
2021/08/04 01:04:50;;;;;;;14.60;4.78;;;;;;;14.15;70.34;99692.19;5070971;28;20086;-78
2021/08/04 01:07:19;;;;;;;12.50;5.38;;;;;;;14.15;70.36;99707.00;5056968;28;20071;-76
2021/08/04 01:09:52;;;;;;;10.63;4.72;;;;;;;14.05;70.37;99690.69;5094292;28;20130;-76
2021/08/04 01:12:23;;;;;;;12.88;4.70;;;;;;;14.07;70.45;99704.59;5076525;28;20122;-79
2021/08/04 01:14:54;;;;;;;10.88;5.25;;;;;;;14.00;70.67;99700.44;5083923;28;20043;-77
2021/08/04 01:17:21;;;;;;;11.13;5.30;;;;;;;13.99;70.85;99706.56;5120546;28;20561;-77
2021/08/04 01:20:22;;;;;;;16.25;5.55;;;;;;;13.94;70.91;99719.72;5107831;28;20037;-76
2021/08/04 01:23:02;;;;;;;13.02;4.50;;;;;;;13.86;70.84;99722.53;5093931;28;20115;-77
2021/08/04 01:25:38;;;;;;;9.95;4.78;;;;;;;13.76;70.79;99712.31;5116197;28;20043;-79
2021/08/04 01:28:21;;;;;;;9.23;5.07;;;;;;;13.69;71.22;99711.63;5095099;28;20554;-76
2021/08/04 01:30:51;;;;;;;14.20;5.80;;;;;;;13.56;71.17;99705.81;5095147;28;20066;-80
2021/08/04 01:33:19;;;;;;;15.77;5.05;;;;;;;13.40;71.28;99689.56;5077886;28;20369;-77
2021/08/04 01:35:46;;;;;;;7.10;4.50;;;;;;;13.56;71.26;99718.88;5095094;28;20436;-79
2021/08/04 01:38:14;;;;;;;13.27;6.03;;;;;;;13.59;71.36;99742.34;5112601;28;20063;-77
2021/08/04 01:40:42;;;;;;;8.15;4.70;;;;;;;13.62;71.74;99744.00;5074689;28;20076;-77
2021/08/04 01:43:11;;;;;;;8.65;4.40;;;;;;;13.55;71.80;99752.00;5073575;28;20067;-81
2021/08/04 01:45:39;;;;;;;11.90;5.15;;;;;;;13.58;72.02;99753.69;5074255;28;20566;-78
2021/08/04 01:48:06;;;;;;;8.73;4.90;;;;;;;13.60;72.03;99748.41;5073928;28;20193;-77
2021/08/04 01:50:34;;;;;;;8.20;4.88;;;;;;;13.52;72.04;99736.38;5074343;28;20063;-78
2021/08/04 01:53:01;;;;;;;12.60;5.70;;;;;;;13.58;72.42;99752.81;5074136;28;20074;-79
2021/08/04 01:55:27;;;;;;;13.98;5.22;;;;;;;13.49;72.26;99733.84;5074565;28;20513;-77
2021/08/04 01:57:53;;;;;;;10.85;5.35;;;;;;;13.58;72.62;99745.84;5074416;28;20125;-78
2021/08/04 02:00:19;;;;;;;11.77;5.60;;;;;;;13.47;72.67;99725.16;5075703;28;20075;-76
2021/08/04 02:02:46;;;;;;;12.13;5.32;;;;;;;13.57;72.69;99751.97;5092541;28;20071;-77
2021/08/04 02:05:12;;;;;;;7.13;4.40;;;;;;;13.63;72.67;99762.31;5076789;28;20036;-77
2021/08/04 02:07:48;;;;;;;9.85;5.45;;;;;;;13.66;72.97;99756.13;5076384;28;20042;-78
2021/08/04 02:10:35;;;;;;;11.90;6.00;;;;;;;13.69;72.77;99761.28;5074370;28;20044;-77
2021/08/04 02:13:15;;;;;;;10.63;5.35;;;;;;;13.70;72.87;99756.00;5092293;28;20040;-77
2021/08/04 02:15:43;;;;;;;12.93;5.90;;;;;;;13.70;72.97;99753.41;5088365;28;20041;-78
2021/08/04 02:18:15;;;;;;;13.88;5.68;;;;;;;13.77;72.88;99761.13;5076932;28;20036;-78
2021/08/04 02:20:45;;;;;;;13.40;5.53;;;;;;;13.70;73.08;99745.56;5111872;28;20038;-76
2021/08/04 02:23:38;;;;;;;14.60;5.05;;;;;;;13.81;73.16;99771.47;5094118;28;20109;-77
2021/08/04 02:26:12;;;;;;;13.60;5.70;;;;;;;13.84;73.22;99760.94;5112485;28;20115;-79
2021/08/04 02:28:41;;;;;;;14.90;6.25;;;;;;;13.81;73.21;99760.16;5073424;28;20040;-77
2021/08/04 02:31:12;;;;;;;11.63;5.60;;;;;;;13.95;73.09;99780.75;5073801;28;20040;-78
2021/08/04 02:33:39;;;;;;;13.20;5.88;;;;;;;13.89;73.24;99757.34;5073270;28;20039;-77
2021/08/04 02:36:06;;;;;;;11.18;5.85;;;;;;;14.00;72.87;99766.69;5072517;28;20097;-79
2021/08/04 02:38:33;;;;;;;14.30;5.97;;;;;;;14.07;73.23;99767.38;5092502;28;20352;-75
2021/08/04 02:41:00;;;;;;;14.25;6.10;;;;;;;14.11;73.24;99766.41;5074094;28;20058;-78
2021/08/04 02:43:26;;;;;;;18.45;6.20;;;;;;;14.27;73.12;99779.13;5091564;28;20108;-75
2021/08/04 02:45:53;;;;;;;13.43;6.28;;;;;;;14.27;73.12;99774.78;5073435;28;20101;-78
2021/08/04 02:48:19;;;;;;;12.90;5.75;;;;;;;14.40;73.24;99780.56;5089628;28;20158;-78
2021/08/04 02:50:53;;;;;;;12.38;5.38;;;;;;;14.44;73.15;99790.06;5089376;28;20105;-78
2021/08/04 02:53:20;;;;;;;9.52;5.97;;;;;;;14.39;72.91;99771.00;5073917;28;20067;-77
2021/08/04 02:55:50;;;;;;;13.43;5.57;;;;;;;14.53;73.15;99786.34;5074730;28;20040;-76
2021/08/04 02:58:17;;;;;;;15.10;6.03;;;;;;;14.60;72.88;99787.88;5058329;28;20082;-77
2021/08/04 03:00:43;;;;;;;14.48;5.55;;;;;;;14.70;72.96;99793.78;5092313;28;20528;-77
2021/08/04 03:03:09;;;;;;;12.98;5.40;;;;;;;14.75;72.75;99784.06;5074969;28;20067;-78
2021/08/04 03:05:35;;;;;;;12.07;5.75;;;;;;;14.79;72.57;99770.88;5093161;28;20614;-78
2021/08/04 03:08:01;;;;;;;10.77;5.93;;;;;;;14.97;72.65;99791.34;5092362;28;20039;-77
2021/08/04 03:10:27;;;;;;;9.82;5.63;;;;;;;15.06;72.41;99798.97;5073355;28;20039;-77
2021/08/04 03:12:53;;;;;;;9.23;5.28;;;;;;;15.15;72.51;99800.47;5091228;28;20109;-78
2021/08/04 03:15:19;;;;;;;9.93;5.50;;;;;;;15.27;72.44;99803.63;5093018;28;20500;-77
2021/08/04 03:17:45;;;;;;;13.30;5.22;;;;;;;15.32;72.28;99789.50;5111505;28;20423;-78
2021/08/04 03:20:12;;;;;;;11.50;5.53;;;;;;;15.50;72.02;99802.97;5093461;28;20050;-78
2021/08/04 03:22:46;;;;;;;10.85;5.07;;;;;;;15.61;72.02;99797.41;5111069;28;20058;-79
2021/08/04 03:25:14;;;;;;;12.93;5.40;;;;;;;15.91;71.70;99813.16;5112960;28;20044;-78
2021/08/04 03:27:40;;;;;;;10.82;5.03;;;;;;;16.04;71.53;99790.88;5112990;28;20036;-77
2021/08/04 03:30:07;;;;;;;10.38;5.93;;;;;;;16.29;71.31;99783.97;5093748;28;20047;-77
2021/08/04 03:32:33;;;;;;;12.00;5.00;;;;;;;16.54;70.83;99781.41;5112610;28;20420;-78
2021/08/04 03:34:59;;;;;;;15.20;5.68;;;;;;;16.91;70.43;99795.03;5077465;28;20036;-77
2021/08/04 03:37:24;;;;;;;10.68;4.90;;;;;;;17.18;70.13;99798.50;5112296;28;20055;-77
2021/08/04 03:39:50;;;;;;;12.45;5.00;;;;;;;17.43;69.69;99795.81;5058461;28;20043;-77
2021/08/04 03:42:16;;;;;;;8.63;4.60;;;;;;;17.70;69.11;99808.84;5093079;28;20075;-77
2021/08/04 03:44:43;;;;;;;9.90;4.80;;;;;;;17.98;68.58;99802.53;5075667;28;20044;-77
2021/08/04 03:47:09;;;;;;;13.80;4.80;;;;;;;18.27;68.00;99803.13;5110995;28;20098;-78
2021/08/04 03:49:35;;;;;;;14.32;5.22;;;;;;;18.63;67.46;99817.47;5075298;28;20046;-77
2021/08/04 03:52:01;;;;;;;10.18;3.97;;;;;;;18.81;66.96;99807.94;5092328;28;20129;-78
2021/08/04 03:54:27;;;;;;;12.73;4.35;;;;;;;19.07;66.61;99820.00;5074191;28;20104;-78
2021/08/04 03:56:53;;;;;;;8.90;3.90;;;;;;;19.31;65.89;99826.91;5092582;28;20478;-78
2021/08/04 03:59:19;;;;;;;10.18;4.00;;;;;;;19.52;64.78;99835.63;5092138;28;20035;-78
2021/08/04 04:01:45;;;;;;;7.85;3.72;;;;;;;19.64;64.45;99828.94;5076647;28;20043;-77
2021/08/04 04:04:11;;;;;;;7.78;3.83;;;;;;;19.81;63.71;99812.31;5110890;28;20392;-77
2021/08/04 04:06:37;;;;;;;7.85;3.90;;;;;;;20.05;62.57;99823.50;5096329;28;20043;-79
2021/08/04 04:09:02;;;;;;;7.88;3.63;;;;;;;20.24;62.06;99831.41;5124978;28;20043;-78
2021/08/04 04:11:29;;;;;;;8.88;3.80;;;;;;;20.37;61.16;99828.16;5098553;28;20070;-77
2021/08/04 04:13:55;;;;;;;7.10;3.67;;;;;;;20.54;60.53;99837.91;5079505;28;20081;-76
2021/08/04 04:16:22;;;;;;;3.90;3.05;;;;;;;20.71;60.24;99831.78;5110706;28;20040;-78
2021/08/04 04:18:49;;;;;;;7.25;3.80;;;;;;;21.01;59.26;99844.38;5091701;28;20138;-77
2021/08/04 04:21:15;;;;;;;7.07;3.75;;;;;;;21.14;58.48;99839.31;5091263;28;20027;-79
2021/08/04 04:23:41;;;;;;;6.82;3.70;;;;;;;21.32;58.48;99825.09;5091763;28;20043;-78
2021/08/04 04:26:07;;;;;;;8.77;3.67;;;;;;;21.77;57.66;99837.75;5091747;28;20035;-79
2021/08/04 04:28:33;;;;;;;5.72;3.63;;;;;;;21.97;56.82;99836.66;5109316;28;20134;-77
2021/08/04 04:30:59;;;;;;;9.82;3.88;;;;;;;22.16;55.93;99833.84;5090770;28;20039;-79
2021/08/04 04:33:25;;;;;;;9.07;3.15;;;;;;;22.44;55.37;99840.22;5090715;28;20059;-78
2021/08/04 04:35:51;;;;;;;7.45;2.80;;;;;;;22.47;54.80;99832.09;5074808;28;20043;-77
2021/08/04 04:38:17;;;;;;;9.23;3.00;;;;;;;22.47;54.49;99828.59;5110715;28;20035;-78
2021/08/04 04:40:43;;;;;;;5.28;2.88;;;;;;;22.61;54.25;99828.63;5092612;28;20039;-76
2021/08/04 04:43:09;;;;;;;7.47;2.92;;;;;;;22.64;53.14;99827.59;5076183;28;20688;-80
2021/08/04 04:45:35;;;;;;;6.45;2.90;;;;;;;22.78;53.29;99835.59;5092659;28;20052;-79
2021/08/04 04:48:01;;;;;;;8.32;3.20;;;;;;;22.94;52.89;99832.88;5112741;28;20039;-78
2021/08/04 04:50:27;;;;;;;7.05;3.25;;;;;;;23.33;52.40;99841.19;5093588;28;20051;-77
2021/08/04 04:52:53;;;;;;;6.93;3.10;;;;;;;23.66;51.65;99841.81;5093848;28;20043;-80
2021/08/04 04:55:18;;;;;;;6.70;3.00;;;;;;;24.03;51.13;99851.00;5075295;28;20062;-79
2021/08/04 04:57:44;;;;;;;6.80;3.45;;;;;;;24.21;50.26;99841.00;5111587;28;20044;-77
2021/08/04 05:00:11;;;;;;;7.43;3.00;;;;;;;24.45;49.44;99836.81;5111743;28;20042;-82
2021/08/04 05:02:38;;;;;;;5.70;2.47;;;;;;;24.57;48.57;99830.69;5094985;28;20134;-78
2021/08/04 05:05:06;;;;;;;6.18;2.72;;;;;;;24.81;48.03;99836.16;5093276;28;20042;-78
2021/08/04 05:07:32;;;;;;;5.63;2.45;;;;;;;25.04;47.83;99832.91;5059289;28;20135;-80
2021/08/04 05:09:58;;;;;;;9.55;3.28;;;;;;;25.38;47.41;99834.03;5093167;28;20036;-81
2021/08/04 05:12:25;;;;;;;4.07;2.35;;;;;;;25.59;46.51;99828.22;5095184;28;20038;-80
2021/08/04 05:14:51;;;;;;;8.32;2.60;;;;;;;25.84;45.95;99835.28;5073723;28;20123;-76
2021/08/04 05:17:17;;;;;;;6.68;3.15;;;;;;;25.95;45.46;99837.16;5072028;28;20147;-78
2021/08/04 05:19:42;;;;;;;7.90;3.30;;;;;;;25.99;45.18;99837.78;5070765;28;20130;-77
2021/08/04 05:22:09;;;;;;;6.57;2.92;;;;;;;26.15;44.25;99827.72;5068738;28;20075;-76
2021/08/04 05:24:35;;;;;;;6.53;2.97;;;;;;;26.48;44.15;99848.47;5071247;28;20036;-75
2021/08/04 05:27:01;;;;;;;5.78;2.90;;;;;;;26.90;43.41;99848.88;5050430;28;20859;-74
2021/08/04 05:29:27;;;;;;;8.68;2.67;;;;;;;27.19;42.17;99838.59;5031983;28;20120;-74
2021/08/04 05:31:53;;;;;;;5.40;2.85;;;;;;;27.57;42.09;99844.59;5071327;28;20049;-76
2021/08/04 05:34:19;;;;;;;6.80;2.90;;;;;;;27.87;40.90;99842.25;5069460;28;20044;-74
2021/08/04 05:36:45;;;;;;;8.45;2.75;;;;;;;28.06;40.40;99846.97;5076461;28;20039;-75
2021/08/04 05:39:11;;;;;;;7.15;2.47;;;;;;;27.98;39.38;99825.34;5092234;28;20050;-75
2021/08/04 05:41:39;;;;;;;5.32;3.10;;;;;;;29.41;39.09;99841.94;5092322;28;20055;-76
2021/08/04 05:44:05;;;;;;;9.35;2.97;;;;;;;31.66;36.18;99836.66;5075631;28;20039;-75
2021/08/04 05:46:31;;;;;;;6.57;3.20;;;;;;;33.27;33.48;99825.97;5094785;28;20127;-76
2021/08/04 05:48:57;;;;;;;9.38;3.15;;;;;;;34.34;31.98;99835.41;5094582;28;20438;-75
2021/08/04 05:51:23;;;;;;;4.90;2.05;;;;;;;35.72;29.66;99812.03;5094129;28;20095;-74
2021/08/04 05:53:49;;;;;;;7.05;2.50;;;;;;;36.99;28.00;99826.13;5079119;28;20066;-74
2021/08/04 05:56:15;;;;;;;4.18;2.25;;;;;;;37.00;26.38;99830.53;5095793;28;20064;-75
2021/08/04 05:58:41;;;;;;;3.47;2.00;;;;;;;36.33;26.26;99820.25;5079696;28;20042;-76
2021/08/04 06:01:08;;;;;;;11.93;6.13;;;;;;;36.72;26.13;99833.84;5079006;28;20055;-74
2021/08/04 06:03:34;;;;;;;8.80;3.97;;;;;;;38.00;24.88;99833.72;5078833;28;20122;-77
2021/08/04 06:06:00;;;;;;;5.68;2.30;;;;;;;39.34;23.76;99820.38;5077264;28;20038;-76
2021/08/04 06:08:28;;;;;;;6.72;2.10;;;;;;;40.34;22.18;99827.16;5097462;28;20044;-77
2021/08/04 06:10:53;;;;;;;4.43;1.95;;;;;;;41.07;21.12;99839.91;5094170;28;20059;-76
2021/08/04 06:13:19;;;;;;;9.68;2.30;;;;;;;41.67;20.47;99840.81;5095218;28;20066;-75
2021/08/04 06:15:46;;;;;;;4.40;2.47;;;;;;;42.29;19.78;99830.13;5063099;28;20071;-77
2021/08/04 06:18:17;;;;;;;7.28;2.65;;;;;;;42.70;19.23;99821.63;5053565;28;20044;-79
2021/08/04 06:20:54;;;;;;;;;;;;;;;;;;;;;
2021/08/04 06:23:40;;;;;;;5.60;2.40;;;;;;;43.55;17.56;99825.50;5072288;28;20040;-80
2021/08/04 06:26:06;;;;;;;4.28;2.10;;;;;;;44.02;17.15;99819.41;5089800;28;20040;-80
2021/08/04 06:28:32;;;;;;;4.38;2.00;;;;;;;44.51;16.62;99829.41;5092890;28;20566;-77
2021/08/04 06:31:01;;;;;;;5.65;2.00;;;;;;;45.19;16.02;99824.34;5076345;28;20524;-81
2021/08/04 06:33:27;;;;;;;6.22;2.10;;;;;;;45.70;15.00;99832.00;5094840;28;20052;-80
2021/08/04 06:35:52;;;;;;;2.25;1.70;;;;;;;45.73;15.06;99823.25;5093359;28;20067;-76
2021/08/04 06:38:18;;;;;;;3.20;1.80;;;;;;;46.11;14.63;99831.94;5093084;28;20420;-78
2021/08/04 06:40:44;;;;;;;4.00;2.35;;;;;;;46.98;14.11;99840.69;5093694;28;20141;-79
2021/08/04 06:43:10;;;;;;;4.85;1.70;;;;;;;46.90;13.73;99830.13;5092260;28;20040;-78
2021/08/04 06:45:36;;;;;;;4.38;1.98;;;;;;;46.77;12.81;99837.63;5058799;28;20044;-78
2021/08/04 06:48:02;;;;;;;3.20;1.90;;;;;;;46.50;13.39;99836.66;5091849;28;20044;-79
2021/08/04 06:50:29;;;;;;;3.75;2.00;;;;;;;46.87;12.92;99836.97;5091985;28;20470;-82
2021/08/04 06:52:55;;;;;;;3.92;2.13;;;;;;;47.34;11.97;99829.31;5091225;28;20040;-83
2021/08/04 06:55:21;;;;;;;4.07;2.08;;;;;;;47.29;12.15;99838.38;5079581;28;20101;-82
2021/08/04 06:57:47;;;;;;;2.75;1.98;;;;;;;46.99;12.06;99845.09;5095177;28;20074;-80
2021/08/04 07:00:13;;;;;;;4.10;2.20;;;;;;;46.80;12.10;99844.53;5113397;28;20043;-80
2021/08/04 07:02:39;;;;;;;4.45;2.45;;;;;;;47.32;11.90;99837.84;5113228;28;20043;-80
2021/08/04 07:05:06;;;;;;;7.85;2.70;;;;;;;47.39;12.01;99839.56;5076382;28;20411;-79
2021/08/04 07:07:32;;;;;;;4.43;2.30;;;;;;;47.73;11.56;99828.41;5093535;28;20107;-78
2021/08/04 07:09:58;;;;;;;5.60;2.30;;;;;;;48.52;10.92;99818.59;5113034;28;20512;-81
2021/08/04 07:12:24;;;;;;;3.47;2.10;;;;;;;49.39;10.97;99833.13;5079722;28;20084;-81
2021/08/04 07:14:51;;;;;;;9.10;2.47;;;;;;;47.82;11.63;99826.81;5106126;28;20039;-81
2021/08/04 07:17:18;;;;;;;5.13;2.75;;;;;;;45.09;12.57;99835.94;5096156;28;20082;-80
2021/08/04 07:19:44;;;;;;;5.47;2.40;;;;;;;42.81;13.67;99840.03;5096206;28;20062;-82
2021/08/04 07:22:10;;;;;;;8.23;2.30;;;;;;;42.03;14.78;99814.78;5115773;28;20850;-82
2021/08/04 07:24:36;;;;;;;5.03;2.42;;;;;;;43.92;14.06;99802.69;5096788;28;20044;-82
2021/08/04 07:27:03;;;;;;;3.53;2.13;;;;;;;45.94;13.00;99818.94;5112487;28;20044;-81
2021/08/04 07:29:29;;;;;;;6.10;2.53;;;;;;;47.11;11.87;99842.25;5094525;28;20126;-80
2021/08/04 07:31:55;;;;;;;3.90;2.20;;;;;;;47.29;12.04;99813.59;5095794;28;20126;-81
2021/08/04 07:34:24;;;;;;;6.55;2.15;;;;;;;47.46;11.80;99810.72;5113736;28;20073;-79
2021/08/04 07:36:51;;;;;;;4.30;2.30;;;;;;;45.50;12.52;99825.00;5078368;28;20040;-81
2021/08/04 07:39:19;;;;;;;5.95;2.40;;;;;;;44.22;12.98;99837.47;5095161;28;20138;-83
2021/08/04 07:41:46;;;;;;;8.73;2.30;;;;;;;43.89;13.65;99830.56;5094857;28;20039;-80
2021/08/04 07:44:12;;;;;;;4.75;2.08;;;;;;;43.62;13.56;99825.41;5095044;28;20458;-79
2021/08/04 07:46:38;;;;;;;5.78;2.55;;;;;;;41.99;14.58;99836.25;5094306;28;20035;-81
2021/08/04 07:49:10;;;;;;;7.05;2.50;;;;;;;40.04;16.04;99817.47;5080342;28;20047;-81
2021/08/04 07:51:36;;;;;;;5.15;2.10;;;;;;;41.25;15.90;99812.00;5094815;28;20481;-81
2021/08/04 07:54:02;;;;;;;3.58;1.80;;;;;;;43.55;14.58;99809.09;5095608;28;20047;-80
2021/08/04 07:56:31;;;;;;;4.00;1.95;;;;;;;44.56;13.14;99807.59;5115999;28;20038;-81
2021/08/04 07:59:02;;;;;;;5.15;2.50;;;;;;;43.08;14.11;99823.34;5081863;28;20053;-78
2021/08/04 08:01:29;;;;;;;5.22;2.20;;;;;;;41.17;15.10;99825.00;5116707;28;20052;-80
2021/08/04 08:03:55;;;;;;;4.50;2.00;;;;;;;39.32;16.08;99814.28;5087409;28;20036;-79
2021/08/04 08:06:22;;;;;;;4.93;1.83;;;;;;;37.76;17.53;99815.88;5114812;28;20512;-80
2021/08/04 08:08:48;;;;;;;6.15;2.00;;;;;;;36.73;18.18;99830.94;5097757;28;20058;-81
2021/08/04 08:11:14;;;;;;;3.47;1.70;;;;;;;38.99;17.13;99815.78;5097564;28;20028;-82
2021/08/04 08:13:40;;;;;;;3.97;1.60;;;;;;;40.85;15.82;99801.16;5066851;28;20065;-82
2021/08/04 08:16:06;;;;;;;2.38;1.40;;;;;;;40.56;15.52;99803.28;5112575;28;20027;-80
2021/08/04 08:18:32;;;;;;;2.58;1.60;;;;;;;41.27;15.85;99816.41;5129600;28;20066;-78
2021/08/04 08:20:58;;;;;;;6.13;1.60;;;;;;;43.67;14.01;99797.41;5096768;28;20600;-77
2021/08/04 08:23:24;;;;;;;2.60;1.40;;;;;;;45.61;12.84;99794.97;5079312;28;20067;-79
2021/08/04 08:25:51;;;;;;;2.63;1.33;;;;;;;45.06;12.17;99808.16;5115709;28;20052;-79
2021/08/04 08:28:17;;;;;;;5.43;1.77;;;;;;;43.24;13.48;99821.94;5097047;28;20088;-79
2021/08/04 08:30:44;;;;;;;3.05;1.45;;;;;;;41.49;14.11;99822.38;5079635;28;20602;-80
2021/08/04 08:33:11;;;;;;;2.38;1.52;;;;;;;39.66;15.26;99793.50;5097577;28;20031;-78
2021/08/04 08:35:38;;;;;;;3.72;1.40;;;;;;;38.38;16.30;99792.75;5097826;28;20040;-81
2021/08/04 08:38:04;;;;;;;4.97;1.75;;;;;;;37.49;17.46;99811.00;5097536;28;20587;-79
2021/08/04 08:40:30;;;;;;;2.53;1.52;;;;;;;36.72;18.48;99823.03;5097433;28;20070;-76
2021/08/04 08:42:56;;;;;;;2.17;1.50;;;;;;;38.07;17.52;99814.78;5095042;28;20447;-76
2021/08/04 08:45:23;;;;;;;3.13;1.63;;;;;;;40.35;16.35;99809.78;5095510;28;20085;-79
2021/08/04 08:47:49;;;;;;;3.08;1.67;;;;;;;42.12;15.07;99790.75;5072681;28;20138;-83
2021/08/04 08:50:22;;;;;;;2.85;1.60;;;;;;;42.59;14.29;99812.25;5100581;28;20048;-78
2021/08/04 08:52:48;;;;;;;3.00;1.60;;;;;;;41.27;14.84;99817.22;5103635;28;20070;-78
2021/08/04 08:55:15;;;;;;;4.25;1.55;;;;;;;39.83;15.75;99821.22;5119423;28;20051;-80
2021/08/04 08:57:43;;;;;;;3.22;1.55;;;;;;;38.16;17.24;99810.91;5114901;28;20039;-81
2021/08/04 09:00:09;;;;;;;4.57;1.70;;;;;;;36.85;17.43;99811.53;5113847;28;20136;-79
2021/08/04 09:02:36;;;;;;;2.45;1.50;;;;;;;35.87;18.86;99829.19;5079563;28;20040;-79
2021/08/04 09:05:07;;;;;;;2.75;1.38;;;;;;;35.10;19.64;99827.97;5096740;28;20039;-78
2021/08/04 09:07:35;;;;;;;4.35;1.58;;;;;;;34.47;20.13;99841.22;5116256;28;20054;-80
2021/08/04 09:10:25;;;;;;;2.58;1.77;;;;;;;33.70;20.73;99838.63;5117321;28;20097;-79
2021/08/04 09:12:54;;;;;;;4.03;1.90;;;;;;;33.03;21.38;99830.22;5096167;28;20043;-82
2021/08/04 09:15:30;;;;;;;3.47;1.55;;;;;;;32.59;21.78;99841.84;5097428;28;20128;-78
2021/08/04 09:18:11;;;;;;;2.47;1.40;;;;;;;32.23;22.54;99838.31;5080993;28;20093;-79
2021/08/04 09:20:53;;;;;;;4.43;1.70;;;;;;;31.94;23.38;99839.34;5097891;28;20044;-81
2021/08/04 09:23:22;;;;;;;3.90;1.27;;;;;;;32.66;22.63;99828.59;5101811;28;20036;-80
2021/08/04 09:26:03;;;;;;;4.72;1.35;;;;;;;33.38;22.15;99822.19;5098609;28;20035;-78
2021/08/04 09:28:30;;;;;;;2.85;1.40;;;;;;;34.57;21.30;99822.13;5104907;28;20098;-80
2021/08/04 09:31:05;;;;;;;3.13;1.52;;;;;;;35.51;20.31;99823.47;5088965;28;20310;-79
2021/08/04 09:33:38;;;;;;;2.00;1.55;;;;;;;35.50;20.09;99816.38;5105111;28;20061;-77
2021/08/04 09:36:04;;;;;;;4.10;1.88;;;;;;;35.08;20.58;99819.19;5068337;28;20027;-77
2021/08/04 09:38:31;;;;;;;2.33;1.63;;;;;;;34.12;20.72;99821.56;5083635;28;20046;-78
2021/08/04 09:41:18;;;;;;;3.80;1.90;;;;;;;32.94;21.53;99806.94;5119581;28;20476;-80
2021/08/04 09:43:48;;;;;;;3.17;1.73;;;;;;;32.64;22.04;99817.13;5067094;28;20419;-78
2021/08/04 09:46:25;;;;;;;3.08;1.90;;;;;;;32.64;22.79;99809.06;5083028;28;20044;-79
2021/08/04 09:48:52;;;;;;;3.90;1.80;;;;;;;32.39;23.02;99814.25;5101141;28;20043;-78
2021/08/04 09:51:19;;;;;;;4.70;2.10;;;;;;;31.61;23.50;99810.22;5102227;28;20043;-81
2021/08/04 09:53:49;;;;;;;2.38;1.50;;;;;;;30.80;24.67;99819.69;5109048;28;20055;-79
2021/08/04 09:56:20;;;;;;;4.32;1.70;;;;;;;30.26;25.66;99825.50;5092274;28;20032;-79
2021/08/04 09:58:49;;;;;;;;;;;;;;;30.05;25.82;99837.22;5107502;28;20039;-79
2021/08/04 10:01:18;;;;;;;4.88;2.30;;;;;;;29.82;25.88;99819.63;5127452;28;19973;-78
2021/08/04 10:04:08;;;;;;;3.83;1.83;;;;;;;29.53;26.50;99836.47;5124319;28;20091;-82
2021/08/04 10:06:39;;;;;;;6.60;2.00;;;;;;;29.28;26.68;99833.22;5125411;28;20043;-81
2021/08/04 10:09:09;;;;;;;4.13;1.90;;;;;;;28.93;27.42;99823.75;5087619;28;20126;-79
2021/08/04 10:11:39;;;;;;;4.70;1.90;;;;;;;28.67;28.12;99834.81;5090777;28;20043;-82
2021/08/04 10:14:05;;;;;;;5.35;1.92;;;;;;;28.54;28.49;99835.00;5089265;28;20508;-80
2021/08/04 10:16:34;;;;;;;2.95;1.88;;;;;;;28.27;28.66;99836.34;5106246;28;20074;-77
2021/08/04 10:19:02;;;;;;;4.18;1.55;;;;;;;27.99;29.11;99816.34;5093417;28;20040;-77
2021/08/04 10:21:33;;;;;;;5.20;1.85;;;;;;;27.84;29.51;99807.75;5100338;28;20031;-78
2021/08/04 10:24:01;;;;;;;4.20;1.48;;;;;;;27.67;30.20;99826.00;5104379;28;20031;-81
2021/08/04 10:26:28;;;;;;;4.25;1.70;;;;;;;27.62;30.34;99823.72;5103805;28;20069;-80
2021/08/04 10:28:57;;;;;;;3.50;2.10;;;;;;;27.42;30.93;99829.75;5103433;28;20040;-78
2021/08/04 10:31:25;;;;;;;3.80;2.10;;;;;;;27.30;31.54;99826.25;5070360;28;20051;-81
2021/08/04 10:33:52;;;;;;;3.42;1.83;;;;;;;27.20;31.82;99823.44;5087916;28;20087;-82
2021/08/04 10:36:32;;;;;;;4.80;1.70;;;;;;;27.02;32.61;99833.75;5104748;28;20122;-79
2021/08/04 10:39:03;;;;;;;2.78;1.55;;;;;;;26.70;33.38;99832.53;5082343;28;20078;-80
2021/08/04 10:41:29;;;;;;;2.40;1.70;;;;;;;26.49;33.17;99831.50;5099318;28;20035;-81
2021/08/04 10:44:05;;;;;;;5.32;1.95;;;;;;;26.42;34.05;99839.13;5101955;28;20035;-79
2021/08/04 10:46:32;;;;;;;2.97;1.73;;;;;;;26.01;34.36;99809.19;5125175;28;20031;-79
2021/08/04 10:49:04;;;;;;;2.38;1.40;;;;;;;25.97;34.74;99845.03;5122472;28;20031;-79
2021/08/04 10:51:54;;;;;;;3.72;1.95;;;;;;;25.76;35.04;99845.63;5087553;28;20040;-81
2021/08/04 10:54:21;;;;;;;3.08;1.60;;;;;;;25.67;35.40;99825.00;5091321;28;20055;-80
2021/08/04 10:56:50;;;;;;;3.78;2.00;;;;;;;25.43;35.93;99809.78;5086700;28;20032;-78
2021/08/04 10:59:19;;;;;;;5.22;2.08;;;;;;;25.50;35.95;99840.34;5106144;28;20047;-79
2021/08/04 11:01:53;;;;;;;3.67;2.00;;;;;;;25.18;36.54;99830.13;5123038;28;20035;-81
2021/08/04 11:04:26;;;;;;;5.78;2.63;;;;;;;25.10;37.14;99835.13;5128829;28;20044;-81
2021/08/04 11:07:07;;;;;;;5.88;2.90;;;;;;;25.13;37.44;99839.41;5112008;28;20066;-81
2021/08/04 11:09:34;;;;;;;4.57;2.30;;;;;;;25.15;37.33;99843.66;5095600;28;20038;-80
2021/08/04 11:12:02;;;;;;;3.28;1.40;;;;;;;25.19;36.70;99826.50;5093774;28;20046;-81
2021/08/04 11:14:47;;;;;;;3.40;1.73;;;;;;;25.26;36.90;99840.25;5092356;28;20332;-82
2021/08/04 11:17:18;;;;;;;3.35;2.10;;;;;;;25.33;36.93;99830.88;5105455;28;20040;-73
2021/08/04 11:20:08;;;;;;;5.45;2.17;;;;;;;25.60;36.49;99834.38;5101289;28;20059;-75
2021/08/04 11:22:36;;;;;;;3.25;1.70;;;;;;;25.86;36.28;99833.34;5080610;28;20052;-76
2021/08/04 11:25:13;;;;;;;3.10;1.70;;;;;;;26.15;35.58;99834.88;5083148;28;20098;-75
2021/08/04 11:27:44;;;;;;;4.47;1.73;;;;;;;26.48;35.49;99830.66;5089126;28;20044;-76
2021/08/04 11:30:13;;;;;;;3.67;1.80;;;;;;;26.62;34.50;99829.59;5103641;28;20046;-74
2021/08/04 11:32:39;;;;;;;3.75;2.08;;;;;;;26.67;34.57;99822.09;5071987;28;20554;-75
2021/08/04 11:35:23;;;;;;;8.45;2.03;;;;;;;26.74;34.54;99791.31;5089295;28;20040;-77
2021/08/04 11:37:48;;;;;;;6.07;2.08;;;;;;;27.06;33.54;99824.53;5121991;28;20046;-77